Time,TemperatureF,DewpointF,PressureIn,WindDirection,WindDirectionDegrees,WindSpeedMPH,WindSpeedGustMPH,Humidity,HourlyPrecipIn,Conditions,Clouds,dailyrainin,SoftwareType,DateUTC
2013-01-21 00:00:00,30.5,28.2,30.05,West,270,0.0,0.0,91,0.00,,---,0.00,VWS V14.00,2013-01-21 05:00:00,
2013-01-21 00:02:00,30.3,28.0,30.05,NW,315,0.0,0.0,91,0.00,,---,0.00,VWS V14.00,2013-01-21 05:02:00,
2013-01-21 00:03:00,30.3,28.0,30.05,NW,315,0.0,0.0,91,0.00,,---,0.00,VWS V14.00,2013-01-21 05:03:00,
2013-01-21 00:08:00,30.3,28.0,30.04,NW,315,0.0,0.0,91,0.00,,---,0.00,VWS V14.00,2013-01-21 05:08:00,
2013-01-21 00:13:00,30.2,27.9,30.04,NW,315,0.0,0.0,91,0.00,,---,0.00,VWS V14.00,2013-01-21 05:13:00,
2013-01-21 00:18:00,30.2,28.2,30.04,NW,315,0.0,0.0,92,0.00,,---,0.00,VWS V14.00,2013-01-21 05:18:00,
2013-01-21 00:23:00,30.0,28.0,30.04,NW,315,0.0,0.0,92,0.00,,---,0.00,VWS V14.00,2013-01-21 05:23:00,
2013-01-21 00:28:00,30.0,28.0,30.04,NW,315,0.0,0.0,92,0.00,,---,0.00,VWS V14.00,2013-01-21 05:28:00,
2013-01-21 00:33:00,29.8,27.8,30.03,NW,315,0.0,0.0,92,0.00,,---,0.00,VWS V14.00,2013-01-21 05:33:00,
2013-01-21 00:38:00,29.8,27.8,30.03,NW,315,0.0,0.0,92,0.00,,---,0.00,VWS V14.00,2013-01-21 05:38:00,
2013-01-21 00:43:00,29.6,27.6,30.03,NW,315,0.0,0.0,92,0.00,,---,0.00,VWS V14.00,2013-01-21 05:43:00,
2013-01-21 00:48:00,29.4,27.4,30.03,NW,315,0.0,0.0,92,0.00,,---,0.00,VWS V14.00,2013-01-21 05:48:00,
2013-01-21 00:53:00,29.4,27.4,30.03,NW,315,0.0,0.0,92,0.00,,---,0.00,VWS V14.00,2013-01-21 05:53:00,
2013-01-21 00:58:00,29.3,27.3,30.03,NW,315,0.0,0.0,92,0.00,,---,0.00,VWS V14.00,2013-01-21 05:58:00,
2013-01-21 01:03:00,29.1,27.3,30.03,NW,315,0.0,0.0,93,0.00,,---,0.00,VWS V14.00,2013-01-21 06:03:00,
2013-01-21 01:08:00,29.1,27.3,30.03,NW,315,0.0,0.0,93,0.00,,---,0.00,VWS V14.00,2013-01-21 06:08:00,
2013-01-21 01:13:00,28.9,27.1,30.03,NW,315,0.0,0.0,93,0.00,,---,0.00,VWS V14.00,2013-01-21 06:13:00,
2013-01-21 01:18:00,28.9,27.1,30.03,NW,315,0.0,0.0,93,0.00,,---,0.00,VWS V14.00,2013-01-21 06:18:00,
2013-01-21 01:24:00,28.7,26.9,30.03,NW,315,0.0,0.0,93,0.00,,---,0.00,VWS V14.00,2013-01-21 06:24:00,
2013-01-21 01:29:00,28.7,26.9,30.03,NW,315,0.0,0.0,93,0.00,,---,0.00,VWS V14.00,2013-01-21 06:29:00,
2013-01-21 01:34:00,28.5,26.7,30.03,NW,315,0.0,0.0,93,0.00,,---,0.00,VWS V14.00,2013-01-21 06:34:00,
2013-01-21 01:39:00,28.5,26.7,30.03,NW,315,0.0,0.0,93,0.00,,---,0.00,VWS V14.00,2013-01-21 06:39:00,
2013-01-21 01:44:00,28.5,26.7,30.03,NW,315,0.0,0.0,93,0.00,,---,0.00,VWS V14.00,2013-01-21 06:44:00,
2013-01-21 01:49:00,28.4,26.6,30.03,NW,315,0.0,0.0,93,0.00,,---,0.00,VWS V14.00,2013-01-21 06:49:00,
2013-01-21 01:54:00,28.2,26.7,30.03,NW,315,0.0,0.0,94,0.00,,---,0.00,VWS V14.00,2013-01-21 06:54:00,
2013-01-21 01:59:00,28.2,26.7,30.03,NW,315,0.0,0.0,94,0.00,,---,0.00,VWS V14.00,2013-01-21 06:59:00,
2013-01-21 02:04:00,28.2,26.7,30.03,NW,315,0.0,0.0,94,0.00,,---,0.00,VWS V14.00,2013-01-21 07:04:00,
2013-01-21 02:09:00,28.2,26.7,30.03,NW,315,0.0,0.0,94,0.00,,---,0.00,VWS V14.00,2013-01-21 07:09:00,
2013-01-21 02:14:00,28.2,26.7,30.04,NW,315,0.0,0.0,94,0.00,,---,0.00,VWS V14.00,2013-01-21 07:14:00,
2013-01-21 02:19:00,28.2,26.7,30.03,NW,315,0.0,0.0,94,0.00,,---,0.00,VWS V14.00,2013-01-21 07:19:00,
2013-01-21 02:24:00,28.2,26.7,30.03,NW,315,0.0,0.0,94,0.00,,---,0.00,VWS V14.00,2013-01-21 07:24:00,
2013-01-21 02:29:00,28.0,26.5,30.03,NW,315,0.0,0.0,94,0.00,,---,0.00,VWS V14.00,2013-01-21 07:29:00,
2013-01-21 02:34:00,28.0,26.5,30.03,NW,315,0.0,0.0,94,0.00,,---,0.00,VWS V14.00,2013-01-21 07:34:00,
2013-01-21 02:39:00,27.8,26.6,30.03,NW,315,0.0,0.0,95,0.00,,---,0.00,VWS V14.00,2013-01-21 07:39:00,
2013-01-21 02:44:00,27.6,26.4,30.04,NW,315,0.0,0.0,95,0.00,,---,0.00,VWS V14.00,2013-01-21 07:44:00,
2013-01-21 02:49:00,27.6,26.4,30.04,NW,315,0.0,0.0,95,0.00,,---,0.00,VWS V14.00,2013-01-21 07:49:00,
2013-01-21 02:54:00,27.6,26.4,30.03,NW,315,0.0,0.0,95,0.00,,---,0.00,VWS V14.00,2013-01-21 07:54:00,
2013-01-21 02:59:00,27.6,26.4,30.03,NW,315,0.0,0.0,95,0.00,,---,0.00,VWS V14.00,2013-01-21 07:59:00,
2013-01-21 03:04:00,27.6,26.4,30.04,NW,315,0.0,0.0,95,0.00,,---,0.00,VWS V14.00,2013-01-21 08:04:00,
2013-01-21 03:09:00,27.6,26.4,30.04,NW,315,0.0,0.6,95,0.00,,---,0.00,VWS V14.00,2013-01-21 08:09:00,
2013-01-21 03:14:00,27.6,26.4,30.04,NW,315,0.0,0.0,95,0.00,,---,0.00,VWS V14.00,2013-01-21 08:14:00,
2013-01-21 03:19:00,27.6,26.4,30.03,NW,315,0.0,0.0,95,0.00,,---,0.00,VWS V14.00,2013-01-21 08:19:00,
2013-01-21 03:24:00,27.6,26.4,30.04,NW,315,0.0,0.0,95,0.00,,---,0.00,VWS V14.00,2013-01-21 08:24:00,
2013-01-21 03:29:00,27.8,26.6,30.03,NW,315,0.0,0.0,95,0.00,,---,0.00,VWS V14.00,2013-01-21 08:29:00,
2013-01-21 03:34:00,27.8,26.6,30.03,NW,315,0.0,0.0,95,0.00,,---,0.00,VWS V14.00,2013-01-21 08:34:00,
2013-01-21 03:39:00,27.6,26.6,30.03,NW,315,0.0,0.0,96,0.00,,---,0.00,VWS V14.00,2013-01-21 08:39:00,
2013-01-21 03:44:00,27.6,26.6,30.03,NW,315,0.0,0.0,96,0.00,,---,0.00,VWS V14.00,2013-01-21 08:44:00,
2013-01-21 03:49:00,27.6,26.6,30.03,NW,315,0.0,0.0,96,0.00,,---,0.00,VWS V14.00,2013-01-21 08:49:00,
2013-01-21 03:54:00,27.6,26.6,30.03,NW,315,0.0,0.0,96,0.00,,---,0.00,VWS V14.00,2013-01-21 08:54:00,
2013-01-21 03:59:00,27.6,26.6,30.03,NW,315,0.0,0.0,96,0.00,,---,0.00,VWS V14.00,2013-01-21 08:59:00,
2013-01-21 04:04:00,27.6,26.6,30.03,NW,315,0.0,0.0,96,0.00,,---,0.00,VWS V14.00,2013-01-21 09:04:00,
2013-01-21 04:09:00,27.6,26.6,30.03,NW,315,0.0,0.0,96,0.00,,---,0.00,VWS V14.00,2013-01-21 09:09:00,
2013-01-21 04:14:00,27.6,26.6,30.03,NW,315,0.0,0.0,96,0.00,,---,0.00,VWS V14.00,2013-01-21 09:14:00,
2013-01-21 04:19:00,27.5,26.5,30.02,NW,315,0.0,0.0,96,0.00,,---,0.00,VWS V14.00,2013-01-21 09:19:00,
2013-01-21 04:24:00,27.5,26.5,30.02,NW,315,0.0,0.0,96,0.00,,---,0.00,VWS V14.00,2013-01-21 09:24:00,
2013-01-21 04:29:00,27.3,26.3,30.02,NW,315,0.0,0.0,96,0.00,,---,0.00,VWS V14.00,2013-01-21 09:29:00,
2013-01-21 04:34:00,27.3,26.3,30.02,NW,315,0.0,0.0,96,0.00,,---,0.00,VWS V14.00,2013-01-21 09:34:00,
2013-01-21 04:39:00,27.3,26.3,30.02,NW,315,0.0,0.0,96,0.00,,---,0.00,VWS V14.00,2013-01-21 09:39:00,
2013-01-21 04:44:00,27.3,26.3,30.02,NW,315,0.0,0.0,96,0.00,,---,0.00,VWS V14.00,2013-01-21 09:44:00,
2013-01-21 04:49:00,27.1,26.1,30.01,NW,315,0.0,0.0,96,0.00,,---,0.00,VWS V14.00,2013-01-21 09:49:00,
2013-01-21 04:54:00,27.1,26.1,30.01,NW,315,0.0,0.0,96,0.00,,---,0.00,VWS V14.00,2013-01-21 09:54:00,
2013-01-21 04:59:00,27.1,26.1,30.01,NW,315,0.0,0.0,96,0.00,,---,0.00,VWS V14.00,2013-01-21 09:59:00,
2013-01-21 05:04:00,26.9,25.9,30.01,NW,315,0.4,0.4,96,0.00,,---,0.00,VWS V14.00,2013-01-21 10:04:00,
2013-01-21 05:09:00,27.1,26.1,30.02,NW,315,0.0,0.4,96,0.00,,---,0.00,VWS V14.00,2013-01-21 10:09:00,
2013-01-21 05:14:00,27.1,26.1,30.01,NW,315,0.0,0.0,96,0.00,,---,0.00,VWS V14.00,2013-01-21 10:14:00,
2013-01-21 05:19:00,26.9,25.9,30.01,NW,315,0.0,0.0,96,0.00,,---,0.00,VWS V14.00,2013-01-21 10:19:00,
2013-01-21 05:24:00,26.9,25.9,30.01,NW,315,0.0,0.0,96,0.00,,---,0.00,VWS V14.00,2013-01-21 10:24:00,
2013-01-21 05:29:00,26.9,25.9,30.01,NW,315,0.0,0.0,96,0.00,,---,0.00,VWS V14.00,2013-01-21 10:29:00,
2013-01-21 05:34:00,26.7,26.0,30.02,NW,315,0.0,0.0,97,0.00,,---,0.00,VWS V14.00,2013-01-21 10:34:00,
2013-01-21 05:39:00,26.9,26.2,30.02,NW,315,0.0,0.0,97,0.00,,---,0.00,VWS V14.00,2013-01-21 10:39:00,
2013-01-21 05:44:00,26.9,26.2,30.02,NW,315,0.0,0.0,97,0.00,,---,0.00,VWS V14.00,2013-01-21 10:44:00,
2013-01-21 05:49:00,26.9,26.2,30.02,NW,315,0.0,0.0,97,0.00,,---,0.00,VWS V14.00,2013-01-21 10:49:00,
2013-01-21 05:54:00,26.9,26.2,30.02,NW,315,0.0,0.0,97,0.00,,---,0.00,VWS V14.00,2013-01-21 10:54:00,
2013-01-21 05:59:00,26.9,26.2,30.01,NW,315,0.0,0.0,97,0.00,,---,0.00,VWS V14.00,2013-01-21 10:59:00,
2013-01-21 06:04:00,26.9,26.2,30.01,NW,315,0.0,0.0,97,0.00,,---,0.00,VWS V14.00,2013-01-21 11:04:00,
2013-01-21 06:09:00,26.9,26.2,30.02,NW,315,0.0,0.0,97,0.00,,---,0.00,VWS V14.00,2013-01-21 11:09:00,
2013-01-21 06:14:00,27.1,26.4,30.01,NW,315,0.0,0.0,97,0.00,,---,0.00,VWS V14.00,2013-01-21 11:14:00,
2013-01-21 06:19:00,27.1,26.4,30.01,NW,315,0.0,0.0,97,0.00,,---,0.00,VWS V14.00,2013-01-21 11:19:00,
2013-01-21 06:24:00,26.9,26.2,30.01,NW,315,0.0,0.0,97,0.00,,---,0.00,VWS V14.00,2013-01-21 11:24:00,
2013-01-21 06:29:00,26.7,26.0,30.01,NW,315,0.0,0.0,97,0.00,,---,0.00,VWS V14.00,2013-01-21 11:29:00,
2013-01-21 06:34:00,26.6,25.9,30.01,NW,315,0.0,0.0,97,0.00,,---,0.00,VWS V14.00,2013-01-21 11:34:00,
2013-01-21 06:40:00,26.6,25.9,30.01,NW,315,0.0,0.0,97,0.00,,---,0.00,VWS V14.00,2013-01-21 11:40:00,
2013-01-21 06:45:00,26.4,25.7,30.01,NW,315,0.0,0.0,97,0.00,,---,0.00,VWS V14.00,2013-01-21 11:45:00,
2013-01-21 06:50:00,26.4,25.7,30.01,NW,315,0.0,0.0,97,0.00,,---,0.00,VWS V14.00,2013-01-21 11:50:00,
2013-01-21 06:55:00,26.4,25.7,30.02,NW,315,0.0,0.0,97,0.00,,---,0.00,VWS V14.00,2013-01-21 11:55:00,
2013-01-21 07:00:00,26.2,25.5,30.02,NW,315,0.0,0.0,97,0.00,,---,0.00,VWS V14.00,2013-01-21 12:00:00,
2013-01-21 07:05:00,26.2,25.5,30.02,NW,315,0.0,0.0,97,0.00,,---,0.00,VWS V14.00,2013-01-21 12:05:00,
2013-01-21 07:10:00,26.2,25.5,30.02,NW,315,0.0,0.0,97,0.00,,---,0.00,VWS V14.00,2013-01-21 12:10:00,
2013-01-21 07:15:00,26.0,25.3,30.02,NW,315,0.0,0.0,97,0.00,,---,0.00,VWS V14.00,2013-01-21 12:15:00,
2013-01-21 07:20:00,25.8,25.1,30.02,NW,315,0.0,0.0,97,0.00,,---,0.00,VWS V14.00,2013-01-21 12:20:00,
2013-01-21 07:25:00,25.7,25.0,30.02,NW,315,0.0,0.0,97,0.00,,---,0.00,VWS V14.00,2013-01-21 12:25:00,
2013-01-21 07:30:00,25.7,25.0,30.01,NW,315,0.0,0.0,97,0.00,,---,0.00,VWS V14.00,2013-01-21 12:30:00,
2013-01-21 07:35:00,25.7,25.0,30.02,NW,315,0.0,0.0,97,0.00,,---,0.00,VWS V14.00,2013-01-21 12:35:00,
2013-01-21 07:40:00,25.7,25.0,30.01,NW,315,0.0,0.0,97,0.00,,---,0.00,VWS V14.00,2013-01-21 12:40:00,
2013-01-21 07:45:00,25.7,25.0,30.02,NW,315,0.0,0.0,97,0.00,,---,0.00,VWS V14.00,2013-01-21 12:45:00,
2013-01-21 07:50:00,25.7,25.0,30.02,NW,315,0.0,0.0,97,0.00,,---,0.00,VWS V14.00,2013-01-21 12:50:00,
2013-01-21 07:55:00,25.8,25.1,30.02,NW,315,0.0,0.0,97,0.00,,---,0.00,VWS V14.00,2013-01-21 12:55:00,
2013-01-21 08:00:00,25.8,25.1,30.02,NW,315,0.0,0.0,97,0.00,,---,0.00,VWS V14.00,2013-01-21 13:00:00,
2013-01-21 08:05:00,26.0,25.3,30.02,NW,315,0.0,0.0,97,0.00,,---,0.00,VWS V14.00,2013-01-21 13:05:00,
2013-01-21 08:10:00,26.2,25.5,30.02,NW,315,0.0,0.0,97,0.00,,---,0.00,VWS V14.00,2013-01-21 13:10:00,
2013-01-21 08:15:00,26.2,25.5,30.02,NW,315,0.0,0.0,97,0.00,,---,0.00,VWS V14.00,2013-01-21 13:15:00,
2013-01-21 08:20:00,26.4,25.9,30.03,NW,315,0.0,0.0,98,0.00,,---,0.00,VWS V14.00,2013-01-21 13:20:00,
2013-01-21 08:25:00,26.4,25.9,30.03,NW,315,0.0,0.0,98,0.00,,---,0.00,VWS V14.00,2013-01-21 13:25:00,
2013-01-21 08:30:00,26.6,26.1,30.03,NW,315,0.0,0.0,98,0.00,,---,0.00,VWS V14.00,2013-01-21 13:30:00,
2013-01-21 08:35:00,26.9,26.4,30.03,NW,315,0.0,0.0,98,0.00,,---,0.00,VWS V14.00,2013-01-21 13:35:00,
2013-01-21 08:40:00,27.3,26.8,30.03,NW,315,0.0,0.0,98,0.00,,---,0.00,VWS V14.00,2013-01-21 13:40:00,
2013-01-21 08:45:00,27.6,27.1,30.03,NW,315,0.0,0.0,98,0.00,,---,0.00,VWS V14.00,2013-01-21 13:45:00,
2013-01-21 08:50:00,28.0,27.5,30.03,NW,315,0.0,0.0,98,0.00,,---,0.00,VWS V14.00,2013-01-21 13:50:00,
2013-01-21 08:55:00,28.5,28.0,30.03,NW,315,0.0,0.0,98,0.00,,---,0.00,VWS V14.00,2013-01-21 13:55:00,
2013-01-21 09:00:00,29.1,28.6,30.03,NW,315,0.0,0.0,98,0.00,,---,0.00,VWS V14.00,2013-01-21 14:00:00,
2013-01-21 09:05:00,29.4,28.9,30.03,NW,315,0.0,0.0,98,0.00,,---,0.00,VWS V14.00,2013-01-21 14:05:00,
2013-01-21 09:10:00,30.2,30.0,30.03,NW,315,0.0,0.0,99,0.00,,---,0.00,VWS V14.00,2013-01-21 14:10:00,
2013-01-21 09:15:00,30.7,30.5,30.03,NW,315,0.0,0.0,99,0.00,,---,0.00,VWS V14.00,2013-01-21 14:15:00,
2013-01-21 09:20:00,31.6,31.4,30.03,WNW,292,0.0,0.0,99,0.00,,---,0.00,VWS V14.00,2013-01-21 14:20:00,
2013-01-21 09:25:00,32.5,32.2,30.03,WNW,292,0.0,0.0,99,0.00,,---,0.00,VWS V14.00,2013-01-21 14:25:00,
2013-01-21 09:30:00,33.2,33.0,30.03,WNW,292,0.0,0.0,99,0.00,,---,0.00,VWS V14.00,2013-01-21 14:30:00,
2013-01-21 09:35:00,33.9,33.4,30.03,West,270,0.0,0.0,98,0.00,,---,0.00,VWS V14.00,2013-01-21 14:35:00,
2013-01-21 09:40:00,34.8,34.3,30.04,West,270,0.0,0.0,98,0.00,,---,0.00,VWS V14.00,2013-01-21 14:40:00,
2013-01-21 09:45:00,35.4,34.9,30.04,West,270,0.0,0.0,98,0.00,,---,0.00,VWS V14.00,2013-01-21 14:45:00,
2013-01-21 09:50:00,35.9,35.4,30.03,WSW,248,5.1,5.1,98,0.00,,---,0.00,VWS V14.00,2013-01-21 14:50:00,
2013-01-21 09:55:00,36.5,35.7,30.04,West,270,0.0,5.1,97,0.00,,---,0.00,VWS V14.00,2013-01-21 14:55:00,
2013-01-21 10:00:00,37.5,36.7,30.04,West,270,2.2,2.2,97,0.00,,---,0.00,VWS V14.00,2013-01-21 15:00:00,
2013-01-21 10:05:00,37.9,36.9,30.04,NW,315,2.6,3.3,96,0.00,,---,0.00,VWS V14.00,2013-01-21 15:05:00,
2013-01-21 10:10:00,39.0,37.7,30.04,West,270,1.7,1.7,95,0.00,,---,0.00,VWS V14.00,2013-01-21 15:10:00,
2013-01-21 10:16:00,39.5,37.9,30.03,West,270,0.0,2.4,94,0.00,,---,0.00,VWS V14.00,2013-01-21 15:16:00,
2013-01-21 10:21:00,40.1,38.2,30.03,West,270,1.7,1.7,93,0.00,,---,0.00,VWS V14.00,2013-01-21 15:21:00,
2013-01-21 10:26:00,41.1,39.2,30.03,SW,225,0.0,2.2,93,0.00,,---,0.00,VWS V14.00,2013-01-21 15:26:00,
2013-01-21 10:31:00,41.5,38.8,30.03,WNW,292,2.9,2.9,90,0.00,,---,0.00,VWS V14.00,2013-01-21 15:31:00,
2013-01-21 10:36:00,42.0,38.7,30.03,NNE,22,2.0,2.9,88,0.00,,---,0.00,VWS V14.00,2013-01-21 15:36:00,
2013-01-21 10:41:00,42.6,39.0,30.03,NW,315,0.0,0.0,87,0.00,,---,0.00,VWS V14.00,2013-01-21 15:41:00,
2013-01-21 10:46:00,43.1,38.9,30.03,West,270,0.8,3.3,85,0.00,,---,0.00,VWS V14.00,2013-01-21 15:46:00,
2013-01-21 10:51:00,43.5,39.0,30.03,West,270,0.8,0.8,84,0.00,,---,0.00,VWS V14.00,2013-01-21 15:51:00,
2013-01-21 10:56:00,44.2,39.4,30.03,West,270,2.4,2.4,83,0.00,,---,0.00,VWS V14.00,2013-01-21 15:56:00,
2013-01-21 11:01:00,44.7,39.2,30.03,WNW,292,2.4,2.4,81,0.00,,---,0.00,VWS V14.00,2013-01-21 16:01:00,
2013-01-21 11:06:00,45.3,39.2,30.03,West,270,0.0,2.4,79,0.00,,---,0.00,VWS V14.00,2013-01-21 16:06:00,
2013-01-21 11:11:00,45.8,39.3,30.03,WNW,292,0.8,0.8,78,0.00,,---,0.00,VWS V14.00,2013-01-21 16:11:00,
2013-01-21 11:16:00,46.2,39.7,30.03,West,270,2.0,2.0,78,0.00,,---,0.00,VWS V14.00,2013-01-21 16:16:00,
2013-01-21 11:21:00,46.9,39.7,30.02,WSW,248,4.0,4.0,76,0.00,,---,0.00,VWS V14.00,2013-01-21 16:21:00,
2013-01-21 11:26:00,47.3,39.8,30.02,West,270,1.5,4.0,75,0.00,,---,0.00,VWS V14.00,2013-01-21 16:26:00,
2013-01-21 11:31:00,47.8,39.9,30.02,West,270,0.0,0.0,74,0.00,,---,0.00,VWS V14.00,2013-01-21 16:31:00,
2013-01-21 11:36:00,48.2,40.0,30.02,West,270,1.7,1.7,73,0.00,,---,0.00,VWS V14.00,2013-01-21 16:36:00,
2013-01-21 11:41:00,48.5,39.9,30.02,West,270,0.0,0.0,72,0.00,,---,0.00,VWS V14.00,2013-01-21 16:41:00,
2013-01-21 11:46:00,48.9,39.2,30.01,ENE,68,4.4,4.4,69,0.00,,---,0.00,VWS V14.00,2013-01-21 16:46:00,
2013-01-21 11:51:00,49.1,39.0,30.00,NE,45,1.1,2.4,68,0.00,,---,0.00,VWS V14.00,2013-01-21 16:51:00,
2013-01-21 11:56:00,49.4,38.1,30.00,NW,315,4.2,4.2,65,0.00,,---,0.00,VWS V14.00,2013-01-21 16:56:00,
2013-01-21 12:01:00,49.6,38.3,30.00,ESE,112,0.0,0.0,65,0.00,,---,0.00,VWS V14.00,2013-01-21 17:01:00,
2013-01-21 12:06:00,50.1,39.2,29.99,West,270,2.6,2.6,66,0.00,,---,0.00,VWS V14.00,2013-01-21 17:06:00,
2013-01-21 12:11:00,50.5,39.6,29.99,WNW,292,1.1,1.1,66,0.00,,---,0.00,VWS V14.00,2013-01-21 17:11:00,
2013-01-21 12:16:00,50.9,40.0,29.98,NNE,22,2.2,2.2,66,0.00,,---,0.00,VWS V14.00,2013-01-21 17:16:00,
2013-01-21 12:21:00,51.6,39.8,29.98,SW,225,0.0,0.0,64,0.00,,---,0.00,VWS V14.00,2013-01-21 17:21:00,
2013-01-21 12:26:00,51.9,40.1,29.97,WSW,248,1.3,1.3,64,0.00,,---,0.00,VWS V14.00,2013-01-21 17:26:00,
2013-01-21 12:31:00,52.3,40.5,29.97,West,270,0.0,0.0,64,0.00,,---,0.00,VWS V14.00,2013-01-21 17:31:00,
2013-01-21 12:36:00,52.5,40.3,29.97,NNE,22,2.0,2.0,63,0.00,,---,0.00,VWS V14.00,2013-01-21 17:36:00,
2013-01-21 12:41:00,52.7,40.5,29.96,ENE,68,0.0,0.0,63,0.00,,---,0.00,VWS V14.00,2013-01-21 17:41:00,
2013-01-21 12:46:00,52.8,40.6,29.96,West,270,1.5,1.5,63,0.00,,---,0.00,VWS V14.00,2013-01-21 17:46:00,
2013-01-21 12:51:00,53.2,40.5,29.96,West,270,0.6,1.5,62,0.00,,---,0.00,VWS V14.00,2013-01-21 17:51:00,
2013-01-21 12:56:00,53.2,40.5,29.95,WSW,248,0.0,1.5,62,0.00,,---,0.00,VWS V14.00,2013-01-21 17:56:00,
2013-01-21 13:02:00,53.4,40.3,29.95,West,270,0.0,0.0,61,0.00,,---,0.00,VWS V14.00,2013-01-21 18:02:00,
2013-01-21 13:07:00,53.7,40.2,29.95,ENE,68,0.0,0.0,60,0.00,,---,0.00,VWS V14.00,2013-01-21 18:07:00,
2013-01-21 13:12:00,53.9,40.8,29.94,WSW,248,4.4,4.4,61,0.00,,---,0.00,VWS V14.00,2013-01-21 18:12:00,
2013-01-21 13:17:00,54.1,40.5,29.94,WNW,292,0.0,4.4,60,0.00,,---,0.00,VWS V14.00,2013-01-21 18:17:00,
2013-01-21 13:22:00,54.3,41.2,29.94,WNW,292,0.0,4.0,61,0.00,,---,0.00,VWS V14.00,2013-01-21 18:22:00,
2013-01-21 13:27:00,54.6,41.4,29.93,ENE,68,0.6,4.0,61,0.00,,---,0.00,VWS V14.00,2013-01-21 18:27:00,
2013-01-21 13:32:00,55.0,41.4,29.93,West,270,2.4,2.4,60,0.00,,---,0.00,VWS V14.00,2013-01-21 18:32:00,
2013-01-21 13:37:00,55.0,41.0,29.93,West,270,3.3,3.3,59,0.00,,---,0.00,VWS V14.00,2013-01-21 18:37:00,
2013-01-21 13:42:00,55.0,41.0,29.93,WSW,248,4.4,4.4,59,0.00,,---,0.00,VWS V14.00,2013-01-21 18:42:00,
2013-01-21 13:47:00,55.2,41.1,29.93,West,270,2.0,4.4,59,0.00,,---,0.00,VWS V14.00,2013-01-21 18:47:00,
2013-01-21 13:52:00,55.0,40.1,29.93,NE,45,0.0,6.0,57,0.00,,---,0.00,VWS V14.00,2013-01-21 18:52:00,
2013-01-21 13:57:00,54.6,40.1,29.92,ESE,112,0.4,6.0,58,0.00,,---,0.00,VWS V14.00,2013-01-21 18:57:00,
2013-01-21 14:02:00,54.6,40.1,29.92,WNW,292,0.6,0.6,58,0.00,,---,0.00,VWS V14.00,2013-01-21 19:02:00,
2013-01-21 14:07:00,54.8,39.9,29.92,NE,45,6.9,6.9,57,0.00,,---,0.00,VWS V14.00,2013-01-21 19:07:00,
2013-01-21 14:12:00,54.3,39.8,29.92,SW,225,0.8,0.8,58,0.00,,---,0.00,VWS V14.00,2013-01-21 19:12:00,
2013-01-21 14:17:00,54.1,39.7,29.92,ENE,68,0.0,0.8,58,0.00,,---,0.00,VWS V14.00,2013-01-21 19:17:00,
2013-01-21 14:22:00,54.3,39.8,29.92,WNW,292,1.7,1.7,58,0.00,,---,0.00,VWS V14.00,2013-01-21 19:22:00,
2013-01-21 14:27:00,54.1,39.7,29.92,SSE,158,0.6,1.7,58,0.00,,---,0.00,VWS V14.00,2013-01-21 19:27:00,
2013-01-21 14:32:00,54.3,40.3,29.92,SW,225,0.0,0.0,59,0.00,,---,0.00,VWS V14.00,2013-01-21 19:32:00,
2013-01-21 14:37:00,54.1,40.1,29.92,WSW,248,0.8,5.5,59,0.00,,---,0.00,VWS V14.00,2013-01-21 19:37:00,
2013-01-21 14:42:00,53.9,38.6,29.92,NE,45,5.1,5.1,56,0.00,,---,0.00,VWS V14.00,2013-01-21 19:42:00,
2013-01-21 14:47:00,53.7,39.3,29.92,WSW,248,0.4,5.1,58,0.00,,---,0.00,VWS V14.00,2013-01-21 19:47:00,
2013-01-21 14:52:00,53.6,38.8,29.92,NE,45,0.0,2.9,57,0.00,,---,0.00,VWS V14.00,2013-01-21 19:52:00,
2013-01-21 14:57:00,53.6,38.8,29.92,North,0,0.0,2.9,57,0.00,,---,0.00,VWS V14.00,2013-01-21 19:57:00,
2013-01-21 15:02:00,53.4,39.0,29.92,North,0,0.8,0.8,58,0.00,,---,0.00,VWS V14.00,2013-01-21 20:02:00,
2013-01-21 15:07:00,53.4,38.6,29.92,NE,45,0.0,5.1,57,0.00,,---,0.00,VWS V14.00,2013-01-21 20:07:00,
2013-01-21 15:12:00,53.2,38.4,29.92,WNW,292,3.5,5.5,57,0.00,,---,0.00,VWS V14.00,2013-01-21 20:12:00,
2013-01-21 15:17:00,53.2,38.4,29.92,WNW,292,0.6,5.5,57,0.00,,---,0.00,VWS V14.00,2013-01-21 20:17:00,
2013-01-21 15:22:00,53.2,38.4,29.92,NE,45,1.1,1.1,57,0.00,,---,0.00,VWS V14.00,2013-01-21 20:22:00,
2013-01-21 15:27:00,52.8,38.5,29.92,NW,315,0.0,1.1,58,0.00,,---,0.00,VWS V14.00,2013-01-21 20:27:00,
2013-01-21 15:32:00,52.8,38.5,29.92,WNW,292,0.0,0.0,58,0.00,,---,0.00,VWS V14.00,2013-01-21 20:32:00,
2013-01-21 15:37:00,52.7,37.9,29.92,West,270,0.6,5.1,57,0.00,,---,0.00,VWS V14.00,2013-01-21 20:37:00,
2013-01-21 15:42:00,52.5,38.2,29.92,WNW,292,1.5,1.5,58,0.00,,---,0.00,VWS V14.00,2013-01-21 20:42:00,
2013-01-21 15:47:00,52.5,38.2,29.92,WNW,292,1.7,3.3,58,0.00,,---,0.00,VWS V14.00,2013-01-21 20:47:00,
2013-01-21 15:52:00,52.3,37.5,29.92,West,270,0.0,0.0,57,0.00,,---,0.00,VWS V14.00,2013-01-21 20:52:00,
2013-01-21 15:57:00,52.3,37.5,29.92,East,90,0.4,1.3,57,0.00,,---,0.00,VWS V14.00,2013-01-21 20:57:00,
2013-01-21 16:02:00,51.4,35.8,29.92,NE,45,2.6,12.0,55,0.00,,---,0.00,VWS V14.00,2013-01-21 21:02:00,
2013-01-21 16:07:00,50.9,35.8,29.92,WNW,292,1.3,12.0,56,0.00,,---,0.00,VWS V14.00,2013-01-21 21:07:00,
2013-01-21 16:12:00,50.7,35.6,29.92,ENE,68,4.2,6.2,56,0.00,,---,0.00,VWS V14.00,2013-01-21 21:12:00,
2013-01-21 16:17:00,50.7,35.6,29.93,ESE,112,0.2,6.2,56,0.00,,---,0.00,VWS V14.00,2013-01-21 21:17:00,
2013-01-21 16:22:00,50.5,35.0,29.92,NE,45,5.1,5.1,55,0.00,,---,0.00,VWS V14.00,2013-01-21 21:22:00,
2013-01-21 16:27:00,50.1,35.0,29.93,NE,45,0.0,5.1,56,0.00,,---,0.00,VWS V14.00,2013-01-21 21:27:00,
2013-01-21 16:32:00,49.8,33.8,29.93,NE,45,0.0,0.8,54,0.00,,---,0.00,VWS V14.00,2013-01-21 21:32:00,
2013-01-21 16:37:00,49.6,34.1,29.93,WNW,292,2.4,2.4,55,0.00,,---,0.00,VWS V14.00,2013-01-21 21:37:00,
2013-01-21 16:42:00,48.7,32.3,29.93,WSW,248,0.0,5.5,53,0.00,,---,0.00,VWS V14.00,2013-01-21 21:42:00,
2013-01-21 16:47:00,48.3,32.4,29.93,NNE,22,0.0,5.5,54,0.00,,---,0.00,VWS V14.00,2013-01-21 21:47:00,
2013-01-21 16:52:00,48.0,31.7,29.93,NE,45,0.0,1.3,53,0.00,,---,0.00,VWS V14.00,2013-01-21 21:52:00,
2013-01-21 16:57:00,47.6,31.8,29.94,NNE,22,0.0,1.3,54,0.00,,---,0.00,VWS V14.00,2013-01-21 21:57:00,
2013-01-21 17:02:00,46.7,31.4,29.93,West,270,0.0,0.0,55,0.00,,---,0.00,VWS V14.00,2013-01-21 22:02:00,
2013-01-21 17:07:00,46.5,31.7,29.94,West,270,0.0,0.0,56,0.00,,---,0.00,VWS V14.00,2013-01-21 22:07:00,
2013-01-21 17:12:00,46.0,31.2,29.94,West,270,2.9,2.9,56,0.00,,---,0.00,VWS V14.00,2013-01-21 22:12:00,
2013-01-21 17:17:00,45.5,30.3,29.94,NE,45,0.0,3.3,55,0.00,,---,0.00,VWS V14.00,2013-01-21 22:17:00,
2013-01-21 17:22:00,45.1,29.9,29.95,NW,315,2.4,2.4,55,0.00,,---,0.00,VWS V14.00,2013-01-21 22:22:00,
2013-01-21 17:27:00,44.6,29.0,29.95,NNE,22,0.0,4.9,54,0.00,,---,0.00,VWS V14.00,2013-01-21 22:27:00,
2013-01-21 17:32:00,44.2,28.6,29.95,NW,315,1.5,1.5,54,0.00,,---,0.00,VWS V14.00,2013-01-21 22:32:00,
2013-01-21 17:37:00,43.7,28.2,29.95,West,270,0.0,5.3,54,0.00,,---,0.00,VWS V14.00,2013-01-21 22:37:00,
2013-01-21 17:43:00,42.9,26.5,29.95,NNW,338,0.0,0.0,52,0.00,,---,0.00,VWS V14.00,2013-01-21 22:43:00,
2013-01-21 17:47:00,42.6,26.7,29.95,NE,45,0.0,1.5,53,0.00,,---,0.00,VWS V14.00,2013-01-21 22:47:00,
2013-01-21 17:52:00,42.4,26.5,29.95,NE,45,0.0,0.0,53,0.00,,---,0.00,VWS V14.00,2013-01-21 22:52:00,
2013-01-21 17:58:00,41.7,25.9,29.96,WNW,292,0.0,2.4,53,0.00,,---,0.00,VWS V14.00,2013-01-21 22:58:00,
2013-01-21 18:03:00,41.1,24.8,29.95,NNE,22,0.0,0.0,52,0.00,,---,0.00,VWS V14.00,2013-01-21 23:03:00,
2013-01-21 18:08:00,41.0,25.2,29.95,West,270,0.0,6.2,53,0.00,,---,0.00,VWS V14.00,2013-01-21 23:08:00,
2013-01-21 18:13:00,40.4,24.6,29.95,NNE,22,7.1,7.1,53,0.00,,---,0.00,VWS V14.00,2013-01-21 23:13:00,
2013-01-21 18:18:00,40.2,24.9,29.95,NNW,338,0.0,7.1,54,0.00,,---,0.00,VWS V14.00,2013-01-21 23:18:00,
2013-01-21 18:23:00,39.9,24.6,29.95,ENE,68,1.3,1.3,54,0.00,,---,0.00,VWS V14.00,2013-01-21 23:23:00,
2013-01-21 18:28:00,39.5,24.2,29.95,NNE,22,0.0,1.3,54,0.00,,---,0.00,VWS V14.00,2013-01-21 23:28:00,
2013-01-21 18:33:00,39.3,24.5,29.95,NNE,22,0.0,0.0,55,0.00,,---,0.00,VWS V14.00,2013-01-21 23:33:00,
2013-01-21 18:38:00,38.8,24.5,29.95,SW,225,0.0,0.0,56,0.00,,---,0.00,VWS V14.00,2013-01-21 23:38:00,
2013-01-21 18:43:00,38.3,24.0,29.95,NNW,338,0.0,0.0,56,0.00,,---,0.00,VWS V14.00,2013-01-21 23:43:00,
2013-01-21 18:48:00,37.9,23.6,29.95,NNW,338,0.0,0.0,56,0.00,,---,0.00,VWS V14.00,2013-01-21 23:48:00,
2013-01-21 18:53:00,37.5,23.7,29.95,NNW,338,0.0,0.0,57,0.00,,---,0.00,VWS V14.00,2013-01-21 23:53:00,
2013-01-21 18:58:00,37.0,23.6,29.95,NNW,338,0.0,0.0,58,0.00,,---,0.00,VWS V14.00,2013-01-21 23:58:00,
2013-01-21 19:03:00,36.5,23.5,29.96,NE,45,1.7,1.7,59,0.00,,---,0.00,VWS V14.00,2013-01-22 00:03:00,
2013-01-21 19:08:00,36.3,23.4,29.96,NE,45,0.0,1.7,59,0.00,,---,0.00,VWS V14.00,2013-01-22 00:08:00,
2013-01-21 19:13:00,36.5,23.5,29.96,NE,45,0.0,0.0,59,0.00,,---,0.00,VWS V14.00,2013-01-22 00:13:00,
2013-01-21 19:18:00,36.1,23.6,29.96,NE,45,0.0,0.0,60,0.00,,---,0.00,VWS V14.00,2013-01-22 00:18:00,
2013-01-21 19:23:00,35.9,23.4,29.96,NE,45,0.0,0.0,60,0.00,,---,0.00,VWS V14.00,2013-01-22 00:23:00,
2013-01-21 19:28:00,35.4,23.3,29.97,NE,45,0.0,0.0,61,0.00,,---,0.00,VWS V14.00,2013-01-22 00:28:00,
2013-01-21 19:33:00,35.4,23.3,29.97,NE,45,0.0,0.0,61,0.00,,---,0.00,VWS V14.00,2013-01-22 00:33:00,
2013-01-21 19:38:00,35.2,23.5,29.97,ENE,68,0.2,0.2,62,0.00,,---,0.00,VWS V14.00,2013-01-22 00:38:00,
2013-01-21 19:43:00,34.8,23.5,29.97,NE,45,0.0,0.0,63,0.00,,---,0.00,VWS V14.00,2013-01-22 00:43:00,
2013-01-21 19:48:00,34.3,23.0,29.97,NE,45,0.0,0.0,63,0.00,,---,0.00,VWS V14.00,2013-01-22 00:48:00,
2013-01-21 19:53:00,34.3,23.4,29.97,NE,45,0.0,0.0,64,0.00,,---,0.00,VWS V14.00,2013-01-22 00:53:00,
2013-01-21 19:58:00,34.3,23.0,29.96,NNE,22,0.0,0.0,63,0.00,,---,0.00,VWS V14.00,2013-01-22 00:58:00,
2013-01-21 20:03:00,34.3,23.0,29.96,NNE,22,0.0,0.0,63,0.00,,---,0.00,VWS V14.00,2013-01-22 01:03:00,
2013-01-21 20:08:00,34.3,23.0,29.96,NE,45,0.0,0.0,63,0.00,,---,0.00,VWS V14.00,2013-01-22 01:08:00,
2013-01-21 20:13:00,34.1,23.2,29.96,NE,45,0.0,0.0,64,0.00,,---,0.00,VWS V14.00,2013-01-22 01:13:00,
2013-01-21 20:18:00,33.6,23.1,29.96,NE,45,0.0,0.0,65,0.00,,---,0.00,VWS V14.00,2013-01-22 01:18:00,
2013-01-21 20:23:00,33.2,23.1,29.95,NE,45,0.0,0.0,66,0.00,,---,0.00,VWS V14.00,2013-01-22 01:23:00,
2013-01-21 20:28:00,32.7,22.6,29.95,ENE,68,0.6,0.6,66,0.00,,---,0.00,VWS V14.00,2013-01-22 01:28:00,
2013-01-21 20:33:00,32.5,22.8,29.95,ENE,68,0.0,0.0,67,0.00,,---,0.00,VWS V14.00,2013-01-22 01:33:00,
2013-01-21 20:38:00,32.1,22.4,29.96,ENE,68,0.0,0.0,67,0.00,,---,0.00,VWS V14.00,2013-01-22 01:38:00,
2013-01-21 20:43:00,32.1,22.8,29.96,ENE,68,0.4,0.4,68,0.00,,---,0.00,VWS V14.00,2013-01-22 01:43:00,
2013-01-21 20:48:00,31.6,22.6,29.97,SW,225,0.0,0.4,69,0.00,,---,0.00,VWS V14.00,2013-01-22 01:48:00,
2013-01-21 20:53:00,31.4,22.8,29.97,SW,225,0.0,0.0,70,0.00,,---,0.00,VWS V14.00,2013-01-22 01:53:00,
2013-01-21 20:58:00,31.2,22.6,29.97,SW,225,0.0,0.0,70,0.00,,---,0.00,VWS V14.00,2013-01-22 01:58:00,
2013-01-21 21:03:00,31.1,22.5,29.97,SW,225,0.0,0.0,70,0.00,,---,0.00,VWS V14.00,2013-01-22 02:03:00,
2013-01-21 21:08:00,30.7,22.4,29.97,SW,225,0.0,0.0,71,0.00,,---,0.00,VWS V14.00,2013-01-22 02:08:00,
2013-01-21 21:14:00,30.7,22.4,29.97,SW,225,0.0,0.0,71,0.00,,---,0.00,VWS V14.00,2013-01-22 02:14:00,
2013-01-21 21:19:00,30.3,22.4,29.97,SW,225,0.0,0.0,72,0.00,,---,0.00,VWS V14.00,2013-01-22 02:19:00,
2013-01-21 21:24:00,30.3,22.7,29.97,SW,225,0.0,0.0,73,0.00,,---,0.00,VWS V14.00,2013-01-22 02:24:00,
2013-01-21 21:29:00,30.2,22.6,29.97,SW,225,0.0,0.0,73,0.00,,---,0.00,VWS V14.00,2013-01-22 02:29:00,
2013-01-21 21:34:00,30.3,22.4,29.97,East,90,0.0,0.0,72,0.00,,---,0.00,VWS V14.00,2013-01-22 02:34:00,
2013-01-21 21:39:00,30.5,22.9,29.97,East,90,0.0,0.0,73,0.00,,---,0.00,VWS V14.00,2013-01-22 02:39:00,
2013-01-21 21:44:00,31.1,22.8,29.97,NNE,22,0.8,1.5,71,0.00,,---,0.00,VWS V14.00,2013-01-22 02:44:00,
2013-01-21 21:49:00,31.4,23.1,29.97,South,180,3.3,3.3,71,0.00,,---,0.00,VWS V14.00,2013-01-22 02:49:00,
2013-01-21 21:54:00,31.2,23.2,29.97,East,90,2.6,2.6,72,0.00,,---,0.00,VWS V14.00,2013-01-22 02:54:00,
2013-01-21 21:59:00,31.2,22.9,29.97,WNW,292,0.0,2.6,71,0.00,,---,0.00,VWS V14.00,2013-01-22 02:59:00,
2013-01-21 22:04:00,31.2,22.9,29.97,WNW,292,0.0,0.0,71,0.00,,---,0.00,VWS V14.00,2013-01-22 03:04:00,
2013-01-21 22:09:00,31.1,22.8,29.97,NW,315,0.0,0.0,71,0.00,,---,0.00,VWS V14.00,2013-01-22 03:09:00,
2013-01-21 22:14:00,30.9,23.0,29.96,NW,315,0.0,0.0,72,0.00,,---,0.00,VWS V14.00,2013-01-22 03:14:00,
2013-01-21 22:19:00,30.7,22.8,29.96,WNW,292,0.0,0.0,72,0.00,,---,0.00,VWS V14.00,2013-01-22 03:19:00,
2013-01-21 22:24:00,30.3,22.7,29.97,WNW,292,0.0,7.8,73,0.00,,---,0.00,VWS V14.00,2013-01-22 03:24:00,
2013-01-21 22:29:00,30.3,22.4,29.97,NW,315,0.0,7.8,72,0.00,,---,0.00,VWS V14.00,2013-01-22 03:29:00,
2013-01-21 22:34:00,30.5,22.6,29.97,WNW,292,0.0,0.0,72,0.00,,---,0.00,VWS V14.00,2013-01-22 03:34:00,
2013-01-21 22:39:00,30.3,22.4,29.97,NW,315,0.0,0.0,72,0.00,,---,0.00,VWS V14.00,2013-01-22 03:39:00,
2013-01-21 22:44:00,30.5,22.2,29.97,ENE,68,2.0,2.0,71,0.00,,---,0.00,VWS V14.00,2013-01-22 03:44:00,
2013-01-21 22:49:00,30.7,22.4,29.97,ENE,68,0.0,2.0,71,0.00,,---,0.00,VWS V14.00,2013-01-22 03:49:00,
2013-01-21 22:54:00,30.7,22.4,29.97,ENE,68,0.0,0.0,71,0.00,,---,0.00,VWS V14.00,2013-01-22 03:54:00,
2013-01-21 22:59:00,30.3,22.4,29.97,ENE,68,0.0,0.0,72,0.00,,---,0.00,VWS V14.00,2013-01-22 03:59:00,
2013-01-21 23:04:00,30.0,22.1,29.97,ENE,68,0.0,0.0,72,0.00,,---,0.00,VWS V14.00,2013-01-22 04:04:00,
2013-01-21 23:09:00,30.0,22.1,29.97,ENE,68,0.0,0.0,72,0.00,,---,0.00,VWS V14.00,2013-01-22 04:09:00,
2013-01-21 23:15:00,30.0,21.8,29.97,ENE,68,0.0,0.0,71,0.00,,---,0.00,VWS V14.00,2013-01-22 04:15:00,
2013-01-21 23:20:00,29.8,21.6,29.97,ENE,68,2.0,2.0,71,0.00,,---,0.00,VWS V14.00,2013-01-22 04:20:00,
2013-01-21 23:25:00,29.8,21.6,29.97,ENE,68,0.0,0.0,71,0.00,,---,0.00,VWS V14.00,2013-01-22 04:25:00,
2013-01-21 23:30:00,29.4,21.2,29.97,ENE,68,0.0,0.0,71,0.00,,---,0.00,VWS V14.00,2013-01-22 04:30:00,
2013-01-21 23:35:00,29.6,21.4,29.97,ENE,68,0.0,0.0,71,0.00,,---,0.00,VWS V14.00,2013-01-22 04:35:00,
2013-01-21 23:40:00,29.6,21.4,29.97,ENE,68,0.0,0.0,71,0.00,,---,0.00,VWS V14.00,2013-01-22 04:40:00,
2013-01-21 23:45:00,29.8,21.2,29.97,ENE,68,0.0,0.0,70,0.00,,---,0.00,VWS V14.00,2013-01-22 04:45:00,
2013-01-21 23:50:00,29.6,21.0,29.97,ENE,68,0.6,0.6,70,0.00,,---,0.00,VWS V14.00,2013-01-22 04:50:00,
2013-01-21 23:55:00,29.4,20.8,29.97,ENE,68,0.0,0.0,70,0.00,,---,0.00,VWS V14.00,2013-01-22 04:55:00,